Snake Valley, Nevada Weather observations

Data are for 10 minute period ending at time listed.
 Day   Time   Solar   Ave.   Ave.  Ave.  Vector  Max.   Baro.   Total    
  of    of     Rad.   Air    Rel.  Wind   Wind   Wind  Press.  Precip.   
Year   Day            Temp.  Hum.  Speed  Dir.   Gust                    
2015   (PST)  Kw/m2    F      %     mph   deg.    mph    mb.     in.     
-------------------------------------------------------------------------
  63   18:50   0.00   29.3    77    4.8   301     6.6   847.0    0.00 
  63   19:00   0.00   29.5    76    5.5   288     6.8   847.1    0.00 
  63   19:10   0.00   28.6    77    4.3   292     5.8   847.3    0.00 
  63   19:20   0.00   28.6    77    5.2   303     8.2   847.5    0.00 
  63   19:30   0.00   30.4    72    6.3   340    11.7   847.7    0.00 
  63   19:40   0.00   31.6    67    6.4   319     9.0   847.8    0.00 
  63   19:50   0.00   30.7    71    5.3   329     6.6   847.8    0.00 
  63   20:00   0.00   31.2    70    4.9   336     7.2   847.9    0.00 
  63   20:10   0.00   30.5    72    4.4   339     5.8   848.0    0.00 
  63   20:20   0.00   28.9    76    4.6   296     6.3   848.1    0.00 
  63   20:30   0.00   27.1    84    6.2   289     8.0   848.3    0.00 
  63   20:40   0.00   27.2    82    5.0   295     7.2   848.4    0.00 
  63   20:50   0.00   27.4    81    4.9   295     5.8   848.5    0.00 
  63   21:00   0.00   26.5    82    3.9   299     5.0   848.6    0.00 
  63   21:10   0.00   26.4    85    5.1   293     5.9   848.8    0.00 
  63   21:20   0.00   25.7    84    4.0   292     5.7   848.9    0.00 
  63   21:30   0.00   25.3    84    4.5   292     6.1   849.0    0.00 
  63   21:40   0.00   24.6    87    4.8   290     5.6   849.0    0.00 
  63   21:50   0.00   24.8    87    4.9   298     5.5   849.1    0.00 
  63   22:00   0.00   24.9    86    5.2   296     6.5   849.1    0.00 
  63   22:10   0.00   25.2    85    5.2   300     6.7   849.2    0.00 
  63   22:20   0.00   24.6    84    4.5   278     6.2   849.3    0.00 
  63   22:30   0.00   24.9    84    5.4   300     6.1   849.2    0.00 
  63   22:40   0.00   24.3    85    4.8   286     5.9   849.2    0.00 
  63   22:50   0.00   24.3    85    4.7   278     5.5   849.3    0.00 
  63   23:00   0.00   24.2    82    4.1   275     5.0   849.2    0.00 
  63   23:10   0.00   25.0    81    3.6   276     4.3   849.2    0.00 
  63   23:20   0.00   24.8    77    3.0   248     5.0   849.2    0.00 
  63   23:30   0.00   24.3    78    1.5   194     3.5   849.3    0.00 
  63   23:40   0.00   23.3    79    1.6   151     3.3   849.4    0.00 
  63   23:50   0.00   22.9    80    2.3   171     2.9   849.4    0.00 
  64    0:00   0.00   22.5    81    2.8   170     3.6   849.3    0.00 
  64    0:10   0.00   21.5    82    3.2   199     4.4   849.3    0.00 
  64    0:20   0.00   21.2    84    0.5   202     2.5   849.3    0.00 
  64    0:30   0.00   21.2    83    0.9   233     2.6   849.4    0.00 
  64    0:40   0.00   21.5    83    0.5   305     3.4   849.5    0.00 
  64    0:50   0.00   22.2    83    2.2   328     3.5   849.6    0.00 
  64    1:00   0.00   23.5    80    1.3   328     1.8   849.6    0.00 
  64    1:10   0.00   22.8    78    1.1   216     2.3   849.6    0.00 
  64    1:20   0.00   19.9    82    1.1   188     2.3   849.7    0.00 
  64    1:30   0.00   19.0    84    0.3   112     2.6   849.9    0.00 
  64    1:40   0.00   19.1    88    2.2   131     2.7   850.0    0.00 
  64    1:50   0.00   19.5    88    1.9   216     2.6   850.1    0.00 
  64    2:00   0.00   20.1    88    1.9   182     3.4   850.2    0.00 
  64    2:10   0.00   21.8    82    2.4   138     3.7   850.2    0.00 
  64    2:20   0.00   22.3    76    1.4    68     2.3   850.1    0.00 
  64    2:30   0.00   21.3    76    2.1    48     2.7   850.1    0.00 
  64    2:40   0.00   20.1    78    2.7    58     3.4   850.1    0.00 
  64    2:50   0.00   18.8    82    1.3     0     2.8   850.1    0.00 
  64    3:00   0.00   19.0    85    2.3    24     3.4   850.1    0.00 
  64    3:10   0.00   18.7    84    0.2    55     1.2   850.1    0.00 
  64    3:20   0.00   17.9    85    0.8    86     1.9   850.0    0.00 
  64    3:30   0.00   17.3    86    0.8   126     1.8   850.2    0.00 
  64    3:40   0.00   16.5    86    0.1   166     0.9   850.3    0.00 
  64    3:50   0.00   16.3    88    0.6   252     2.4   850.5    0.00 
  64    4:00   0.00   16.5    88    0.2   255     1.3   850.6    0.00 
  64    4:10   0.00   16.6    89    0.5   213     1.7   850.8    0.00 
  64    4:20   0.00   16.6    88    1.2   206     2.8   850.8    0.00 
  64    4:30   0.00   16.5    88    2.3   205     3.0   850.8    0.00 
  64    4:40   0.00   15.8    88    0.6   153     2.0   851.2    0.00 
  64    4:50   0.00   15.9    89    3.0   164     3.9   851.1    0.00 
  64    5:00   0.00   16.1    89    3.5   182     4.2   851.0    0.00 
  64    5:10   0.00   16.4    88    2.6   206     3.9   851.0    0.00 
  64    5:20   0.00   16.2    88    0.0     0     0.0   850.9    0.00 
  64    5:30   0.00   15.8    88    0.9   211     2.7   851.0    0.00 
  64    5:40   0.00   15.7    88    2.4   330     4.7   851.1    0.00 
  64    5:50   0.00   16.5    89    2.4   342     5.3   851.1    0.00 
  64    6:00   0.00   16.2    88    0.6   233     2.5   851.1    0.00 
  64    6:10   0.01   15.8    88    1.7   158     4.1   851.1    0.00 
  64    6:20   0.02   15.9    89    4.1   171     5.1   851.1    0.00 
  64    6:30   0.04   17.3    89    3.4   171     4.8   851.1    0.00 
  64    6:40   0.06   19.7    87    2.8   176     4.2   851.2    0.00 
  64    6:50   0.09   20.6    84    0.2   240     1.2   851.3    0.00 
  64    7:00   0.12   21.9    82    0.2   126     1.7   851.3    0.00 
  64    7:10   0.15   23.2    78    2.8   149     4.0   851.3    0.00 
  64    7:20   0.18   24.9    73    2.6   162     4.1   851.5    0.00 
  64    7:30   0.21   26.6    74    4.5   151     7.5   851.6    0.00 
  64    7:40   0.25   26.9    76    8.2   151    10.8   851.7    0.00 
  64    7:50   0.28   26.1    77    9.8   146    12.7   851.8    0.00 
  64    8:00   0.32   27.4    75    8.8   157    12.3   851.8    0.00 
  64    8:10   0.35   28.5    73    8.2   150    10.5   851.9    0.00 
  64    8:20   0.39   29.3    72    7.9   150    10.3   852.1    0.00 
  64    8:30   0.42   30.0    71    9.2   151    11.4   852.0    0.00 
  64    8:40   0.45   31.1    69    7.9   151    10.2   852.0    0.00 
  64    8:50   0.48   32.5    65    7.1   150     9.3   852.0    0.00 
  64    9:00   0.51   33.2    62    6.7   139     8.9   852.0    0.00 
  64    9:10   0.54   34.2    58    5.8   149     8.2   852.0    0.00 
  64    9:20   0.57   35.0    54    6.2   153     8.5   851.9    0.00 
  64    9:30   0.60   35.6    54    5.1   135     7.6   851.9    0.00 
  64    9:40   0.62   35.9    55    6.1   114     8.3   851.9    0.00 
  64    9:50   0.64   35.8    56    5.9   109     8.5   852.0    0.00 
  64   10:00   0.66   36.4    54    4.4   107     7.1   852.2    0.00 
  64   10:10   0.68   37.3    53    4.8   128     8.0   852.2    0.00 
  64   10:20   0.70   38.1    51    3.3   140     6.9   852.3    0.00 
  64   10:30   0.72   38.6    49    3.6   109     6.6   852.4    0.00 
  64   10:40   0.73   39.2    46    2.8    89     6.6   852.4    0.00 
  64   10:50   0.75   40.5    44    3.5   173     6.3   852.4    0.00 
  64   11:00   0.76   40.6    45    4.1   169     8.3   852.4    0.00 
  64   11:10   0.77   40.9    45    4.3   148     7.8   852.3    0.00 
  64   11:20   0.78   41.2    44    4.1   184     7.5   852.3    0.00 
  64   11:30   0.78   42.1    41    3.7   158     7.2   852.2    0.00 
  64   11:40   0.79   42.8    38    2.0   152     5.6   852.2    0.00 
  64   11:50   0.79   42.9    38    1.8   109     4.3   852.2    0.00 
  64   12:00   0.79   43.5    37    2.5   126     5.6   852.1    0.00 
  64   12:10   0.79   43.4    35    2.9   107     5.9   852.0    0.00 
  64   12:20   0.79   44.1    34    3.1   106     5.9   851.9    0.00 
  64   12:30   0.78   45.2    34    2.7   182     6.3   851.8    0.00 
  64   12:40   0.78   45.5    32    3.9   147     8.6   851.7    0.00 
  64   12:50   0.76   45.3    32    2.3   170     5.3   851.6    0.00 
  64   13:00   0.75   45.8    33    3.0   174     7.5   851.5    0.00 
  64   13:10   0.74   47.1    31    1.4   124     4.2   851.4    0.00 
  64   13:20   0.73   46.9    32    4.1   171     8.8   851.3    0.00 
  64   13:30   0.71   46.8    31    3.6   173     6.6   851.2    0.00 
  64   13:40   0.69   46.9    32    4.9   167    10.2   851.1    0.00 
  64   13:50   0.67   47.2    31    5.0   165     9.9   851.0    0.00 
  64   14:00   0.65   47.4    28    5.2   165     8.9   851.0    0.00 
  64   14:10   0.63   47.2    28    3.9   147     8.0   851.0    0.00 
  64   14:20   0.61   48.2    26    3.5   181     7.2   851.0    0.00 
  64   14:30   0.58   48.5    28    4.2   141     6.8   851.0    0.00 
  64   14:40   0.55   48.3    27    2.6   193     4.7   850.9    0.00 
  64   14:50   0.52   48.9    25    4.0   144     7.5   850.9    0.00 
  64   15:00   0.50   48.6    25    3.0    94     5.6   850.9    0.00 
  64   15:10   0.47   48.9    26    2.9    83     5.8   850.9    0.00 
  64   15:20   0.43   50.3    25    1.2   316     3.3   850.9    0.00 
  64   15:30   0.40   50.7    26    1.7    36     4.4   850.8    0.00 
  64   15:40   0.36   50.2    30    1.9    87     4.2   850.8    0.00 
  64   15:50   0.33   50.5    29    2.5   152     5.8   850.8    0.00 
  64   16:00   0.30   49.5    30    2.4    97     4.2   850.9    0.00 
  64   16:10   0.26   50.5    29    1.6   164     3.4   850.9    0.00 
  64   16:20   0.23   50.8    28    2.7   212     6.2   850.9    0.00 
  64   16:30   0.20   49.5    30    3.9   203     5.9   850.9    0.00 
  64   16:40   0.16   48.3    32    4.8   220     6.1   851.0    0.00 
  64   16:50   0.13   47.0    38    5.3   237     7.0   851.0    0.00 
  64   17:00   0.07   45.6    40    5.1   238     6.6   851.1    0.00 
  64   17:10   0.02   42.7    51    4.4   237     5.0   851.1    0.00 
  64   17:20   0.02   39.5    63    5.2   235     6.6   851.1    0.00 
  64   17:30   0.01   37.3    66    5.1   241     6.7   851.0    0.00 
  64   17:40   0.01   36.5    65    5.0   245     6.4   851.0    0.00 
  64   17:50   0.00   35.0    68    4.6   250     5.1   851.0    0.00 
  64   18:00   0.00   33.6    72    4.0   269     5.5   851.0    0.00 
  64   18:10   0.00   33.1    75    4.1   296     5.2   850.9    0.00 
  64   18:20   0.00   33.9    72    5.1   284     5.7   850.8    0.00 
  64   18:30   0.00   32.4    75    5.5   297     6.9   850.8    0.00 
  64   18:40   0.00   32.6    74    6.1   304     6.9   850.8    0.00 

Return to Snake Valley graphs page.


Western Regional Climate Center,wrcc@dri.edu